sensor_id;sensor_type;location;lat;lon;timestamp;pressure;altitude;pressure_sealevel;temperature;humidity
54592;BME280;40488;48.558;18.150;2023-05-07T08:05:56;99758.06;;;18.42;66.23
54592;BME280;40488;48.558;18.150;2023-05-07T08:08:25;99759.97;;;18.36;63.89
54592;BME280;40488;48.558;18.150;2023-05-07T08:10:54;99754.16;;;18.29;62.97
54592;BME280;40488;48.558;18.150;2023-05-07T08:13:29;99756.22;;;18.47;62.70
54592;BME280;40488;48.558;18.150;2023-05-07T08:15:59;99750.41;;;18.39;61.44
54592;BME280;40488;48.558;18.150;2023-05-07T08:18:28;99758.81;;;18.47;61.72
54592;BME280;40488;48.558;18.150;2023-05-07T08:21:02;99757.47;;;18.34;60.64
54592;BME280;40488;48.558;18.150;2023-05-07T08:23:32;99759.03;;;18.38;61.61
54592;BME280;40488;48.558;18.150;2023-05-07T08:26:03;99759.00;;;18.67;61.21
54592;BME280;40488;48.558;18.150;2023-05-07T08:28:32;99756.50;;;18.64;59.40
54592;BME280;40488;48.558;18.150;2023-05-07T08:31:01;99761.50;;;18.70;60.04
54592;BME280;40488;48.558;18.150;2023-05-07T08:33:35;99765.47;;;18.81;59.11
54592;BME280;40488;48.558;18.150;2023-05-07T08:36:06;99780.00;;;18.85;57.70
54592;BME280;40488;48.558;18.150;2023-05-07T08:38:37;99769.50;;;18.89;56.91
54592;BME280;40488;48.558;18.150;2023-05-07T08:41:09;99771.91;;;18.95;56.75
54592;BME280;40488;48.558;18.150;2023-05-07T08:43:41;99772.84;;;18.93;56.12
54592;BME280;40488;48.558;18.150;2023-05-07T08:46:11;99775.97;;;19.02;56.32
54592;BME280;40488;48.558;18.150;2023-05-07T08:48:42;99772.44;;;19.05;55.27
54592;BME280;40488;48.558;18.150;2023-05-07T08:51:17;99772.75;;;19.20;55.66
54592;BME280;40488;48.558;18.150;2023-05-07T08:53:48;99766.63;;;19.23;54.34
54592;BME280;40488;48.558;18.150;2023-05-07T08:56:25;99772.03;;;19.17;53.75
54592;BME280;40488;48.558;18.150;2023-05-07T08:58:54;99770.28;;;18.91;53.59
54592;BME280;40488;48.558;18.150;2023-05-07T09:01:28;99767.53;;;18.96;54.06
54592;BME280;40488;48.558;18.150;2023-05-07T09:03:57;99774.19;;;19.03;54.21
54592;BME280;40488;48.558;18.150;2023-05-07T09:06:30;99765.09;;;18.91;53.87
54592;BME280;40488;48.558;18.150;2023-05-07T09:09:00;99768.94;;;19.06;53.25
54592;BME280;40488;48.558;18.150;2023-05-07T09:11:33;99772.69;;;19.22;53.08
54592;BME280;40488;48.558;18.150;2023-05-07T09:14:02;99768.09;;;19.30;52.47
54592;BME280;40488;48.558;18.150;2023-05-07T09:16:38;99768.09;;;19.30;52.32
54592;BME280;40488;48.558;18.150;2023-05-07T09:19:08;99769.28;;;19.46;52.64
54592;BME280;40488;48.558;18.150;2023-05-07T09:21:44;99767.25;;;19.54;52.34
54592;BME280;40488;48.558;18.150;2023-05-07T09:24:15;99773.81;;;19.87;53.00
54592;BME280;40488;48.558;18.150;2023-05-07T09:26:44;99768.28;;;19.96;52.07
54592;BME280;40488;48.558;18.150;2023-05-07T09:29:15;99767.84;;;19.85;52.28
54592;BME280;40488;48.558;18.150;2023-05-07T09:31:45;99773.47;;;19.73;51.06
54592;BME280;40488;48.558;18.150;2023-05-07T09:34:16;99770.31;;;19.65;50.50
54592;BME280;40488;48.558;18.150;2023-05-07T09:36:48;99775.03;;;19.77;50.77
54592;BME280;40488;48.558;18.150;2023-05-07T09:39:18;99771.31;;;19.61;49.75
54592;BME280;40488;48.558;18.150;2023-05-07T09:41:48;99762.63;;;19.39;49.29
54592;BME280;40488;48.558;18.150;2023-05-07T09:44:25;99748.19;;;19.57;50.28
54592;BME280;40488;48.558;18.150;2023-05-07T09:46:54;99766.03;;;19.87;50.53
54592;BME280;40488;48.558;18.150;2023-05-07T09:49:34;99756.00;;;20.01;50.81
54592;BME280;40488;48.558;18.150;2023-05-07T09:52:08;99765.00;;;20.15;50.35
54592;BME280;40488;48.558;18.150;2023-05-07T09:54:45;99760.97;;;19.84;49.66
54592;BME280;40488;48.558;18.150;2023-05-07T09:57:19;99747.50;;;19.98;50.01
54592;BME280;40488;48.558;18.150;2023-05-07T09:59:55;99749.19;;;20.21;49.90
54592;BME280;40488;48.558;18.150;2023-05-07T10:02:30;99756.16;;;19.97;49.35
54592;BME280;40488;48.558;18.150;2023-05-07T10:05:00;99752.72;;;19.96;49.38
54592;BME280;40488;48.558;18.150;2023-05-07T10:07:35;99749.06;;;20.02;49.32
54592;BME280;40488;48.558;18.150;2023-05-07T10:10:09;99752.66;;;20.21;49.42
54592;BME280;40488;48.558;18.150;2023-05-07T10:12:43;99740.91;;;20.13;48.76
54592;BME280;40488;48.558;18.150;2023-05-07T10:15:18;99750.16;;;20.18;49.28
54592;BME280;40488;48.558;18.150;2023-05-07T10:17:51;99761.50;;;20.16;49.37
54592;BME280;40488;48.558;18.150;2023-05-07T10:20:24;99752.94;;;20.14;49.04
54592;BME280;40488;48.558;18.150;2023-05-07T10:22:58;99753.06;;;20.11;49.15
54592;BME280;40488;48.558;18.150;2023-05-07T10:25:35;99750.53;;;20.09;49.50
54592;BME280;40488;48.558;18.150;2023-05-07T10:28:13;99743.81;;;20.27;49.22
54592;BME280;40488;48.558;18.150;2023-05-07T10:30:53;99734.50;;;20.23;48.97
54592;BME280;40488;48.558;18.150;2023-05-07T10:33:36;99749.19;;;20.21;49.37
54592;BME280;40488;48.558;18.150;2023-05-07T10:36:07;99747.63;;;20.17;49.62
54592;BME280;40488;48.558;18.150;2023-05-07T10:38:38;99748.53;;;20.39;49.69
54592;BME280;40488;48.558;18.150;2023-05-07T10:41:10;99753.72;;;20.60;49.13
54592;BME280;40488;48.558;18.150;2023-05-07T10:43:44;99750.03;;;20.86;49.07
54592;BME280;40488;48.558;18.150;2023-05-07T10:46:25;99741.63;;;21.21;49.37
54592;BME280;40488;48.558;18.150;2023-05-07T10:49:08;99747.72;;;21.41;48.90
54592;BME280;40488;48.558;18.150;2023-05-07T10:52:13;99751.69;;;21.68;48.02
54592;BME280;40488;48.558;18.150;2023-05-07T11:00:56;99742.16;;;21.29;46.85
54592;BME280;40488;48.558;18.150;2023-05-07T11:03:31;99742.31;;;21.45;47.38
54592;BME280;40488;48.558;18.150;2023-05-07T11:06:11;99747.19;;;21.53;46.94
54592;BME280;40488;48.558;18.150;2023-05-07T11:08:55;99745.56;;;21.50;46.95
54592;BME280;40488;48.558;18.150;2023-05-07T11:11:45;99747.59;;;21.44;46.54
54592;BME280;40488;48.558;18.150;2023-05-07T11:17:24;99745.63;;;21.49;45.77
54592;BME280;40488;48.558;18.150;2023-05-07T11:20:02;99743.66;;;21.35;46.04
54592;BME280;40488;48.558;18.150;2023-05-07T11:22:46;99750.66;;;21.33;45.95
54592;BME280;40488;48.558;18.150;2023-05-07T11:25:22;99745.75;;;21.46;45.59
54592;BME280;40488;48.558;18.150;2023-05-07T11:28:07;99744.38;;;21.57;45.55
54592;BME280;40488;48.558;18.150;2023-05-07T11:30:46;99749.41;;;21.62;45.92
54592;BME280;40488;48.558;18.150;2023-05-07T11:33:20;99744.41;;;21.76;46.12
54592;BME280;40488;48.558;18.150;2023-05-07T11:35:53;99753.22;;;21.92;45.96
54592;BME280;40488;48.558;18.150;2023-05-07T11:38:26;99759.28;;;21.92;45.81
54592;BME280;40488;48.558;18.150;2023-05-07T11:40:56;99763.63;;;21.72;45.74
54592;BME280;40488;48.558;18.150;2023-05-07T11:43:26;99750.63;;;21.92;45.72
54592;BME280;40488;48.558;18.150;2023-05-07T11:46:05;99747.50;;;21.84;45.47
54592;BME280;40488;48.558;18.150;2023-05-07T11:48:36;99750.53;;;21.93;45.05
54592;BME280;40488;48.558;18.150;2023-05-07T11:51:06;99749.44;;;21.79;44.70
54592;BME280;40488;48.558;18.150;2023-05-07T11:53:37;99755.41;;;22.01;44.15
54592;BME280;40488;48.558;18.150;2023-05-07T11:56:07;99758.00;;;22.01;43.85
54592;BME280;40488;48.558;18.150;2023-05-07T11:58:36;99751.31;;;22.14;43.82
54592;BME280;40488;48.558;18.150;2023-05-07T12:01:07;99750.19;;;22.01;42.99
54592;BME280;40488;48.558;18.150;2023-05-07T12:03:40;99752.97;;;21.78;43.84
54592;BME280;40488;48.558;18.150;2023-05-07T12:06:11;99745.63;;;21.49;43.36
54592;BME280;40488;48.558;18.150;2023-05-07T12:08:42;99748.56;;;21.41;43.37
54592;BME280;40488;48.558;18.150;2023-05-07T12:11:15;99751.88;;;21.45;43.26
54592;BME280;40488;48.558;18.150;2023-05-07T12:13:45;99740.28;;;21.33;42.75
54592;BME280;40488;48.558;18.150;2023-05-07T12:16:15;99754.94;;;21.34;42.88
54592;BME280;40488;48.558;18.150;2023-05-07T12:18:46;99758.38;;;21.34;43.33
54592;BME280;40488;48.558;18.150;2023-05-07T12:21:15;99752.13;;;21.38;43.00
54592;BME280;40488;48.558;18.150;2023-05-07T12:23:44;99744.56;;;21.34;43.40
54592;BME280;40488;48.558;18.150;2023-05-07T12:26:13;99750.34;;;21.20;43.97
54592;BME280;40488;48.558;18.150;2023-05-07T12:28:43;99751.13;;;21.43;43.73
54592;BME280;40488;48.558;18.150;2023-05-07T12:31:14;99753.31;;;21.52;43.61
54592;BME280;40488;48.558;18.150;2023-05-07T12:33:45;99753.03;;;21.76;43.74
54592;BME280;40488;48.558;18.150;2023-05-07T12:36:14;99759.81;;;21.99;44.04
54592;BME280;40488;48.558;18.150;2023-05-07T12:38:43;99757.72;;;21.88;43.10
54592;BME280;40488;48.558;18.150;2023-05-07T12:41:12;99764.72;;;21.48;43.22
54592;BME280;40488;48.558;18.150;2023-05-07T12:43:44;99764.22;;;21.40;43.33
54592;BME280;40488;48.558;18.150;2023-05-07T12:46:13;99759.03;;;21.19;43.28
54592;BME280;40488;48.558;18.150;2023-05-07T12:48:46;99720.09;;;20.99;43.30
54592;BME280;40488;48.558;18.150;2023-05-07T12:51:16;99756.84;;;21.30;43.51
54592;BME280;40488;48.558;18.150;2023-05-07T12:53:45;99761.09;;;21.52;43.63
54592;BME280;40488;48.558;18.150;2023-05-07T12:56:16;99760.56;;;21.64;43.26
54592;BME280;40488;48.558;18.150;2023-05-07T12:58:45;99761.59;;;21.60;42.93
54592;BME280;40488;48.558;18.150;2023-05-07T13:01:15;99753.34;;;21.50;42.98
54592;BME280;40488;48.558;18.150;2023-05-07T13:03:49;99762.09;;;21.68;43.11
54592;BME280;40488;48.558;18.150;2023-05-07T13:06:18;99762.91;;;21.50;43.07
54592;BME280;40488;48.558;18.150;2023-05-07T13:08:47;99754.91;;;21.15;43.82
54592;BME280;40488;48.558;18.150;2023-05-07T13:11:16;99750.88;;;21.08;44.30
54592;BME280;40488;48.558;18.150;2023-05-07T13:13:44;99752.28;;;21.15;44.04
54592;BME280;40488;48.558;18.150;2023-05-07T13:16:13;99754.16;;;21.32;44.44
54592;BME280;40488;48.558;18.150;2023-05-07T13:18:42;99753.88;;;21.38;44.23
54592;BME280;40488;48.558;18.150;2023-05-07T13:21:14;99745.22;;;21.58;44.37
54592;BME280;40488;48.558;18.150;2023-05-07T13:23:43;99747.78;;;21.39;44.08
54592;BME280;40488;48.558;18.150;2023-05-07T13:26:12;99745.19;;;21.39;44.98
54592;BME280;40488;48.558;18.150;2023-05-07T13:28:53;99743.38;;;21.41;44.98
54592;BME280;40488;48.558;18.150;2023-05-07T13:31:22;99740.38;;;21.11;44.87
54592;BME280;40488;48.558;18.150;2023-05-07T13:33:51;99738.22;;;20.79;45.51
54592;BME280;40488;48.558;18.150;2023-05-07T13:36:21;99732.50;;;20.51;46.06
54592;BME280;40488;48.558;18.150;2023-05-07T13:38:50;99736.72;;;20.53;46.46
54592;BME280;40488;48.558;18.150;2023-05-07T13:41:20;99734.50;;;20.64;46.37
54592;BME280;40488;48.558;18.150;2023-05-07T13:43:49;99745.13;;;20.80;46.38
54592;BME280;40488;48.558;18.150;2023-05-07T13:46:18;99742.78;;;20.94;46.01
54592;BME280;40488;48.558;18.150;2023-05-07T13:48:47;99744.75;;;21.09;46.06
54592;BME280;40488;48.558;18.150;2023-05-07T13:51:16;99748.81;;;20.95;46.23
54592;BME280;40488;48.558;18.150;2023-05-07T13:53:46;99753.53;;;20.65;45.92
54592;BME280;40488;48.558;18.150;2023-05-07T13:56:15;99743.09;;;20.45;46.54
54592;BME280;40488;48.558;18.150;2023-05-07T13:58:44;99746.31;;;20.30;46.63
54592;BME280;40488;48.558;18.150;2023-05-07T14:01:27;99739.44;;;20.05;47.15
54592;BME280;40488;48.558;18.150;2023-05-07T14:03:56;99752.50;;;20.02;47.25
54592;BME280;40488;48.558;18.150;2023-05-07T14:06:27;99749.34;;;20.18;47.25
54592;BME280;40488;48.558;18.150;2023-05-07T14:08:57;99748.84;;;20.08;46.80
54592;BME280;40488;48.558;18.150;2023-05-07T14:11:27;99755.28;;;19.75;47.49
54592;BME280;40488;48.558;18.150;2023-05-07T14:13:56;99756.03;;;19.78;48.14
54592;BME280;40488;48.558;18.150;2023-05-07T14:16:25;99761.31;;;19.75;48.47
54592;BME280;40488;48.558;18.150;2023-05-07T14:18:54;99765.34;;;19.59;48.59
54592;BME280;40488;48.558;18.150;2023-05-07T14:21:25;99757.25;;;19.45;48.57
54592;BME280;40488;48.558;18.150;2023-05-07T14:23:53;99770.00;;;19.74;49.28
54592;BME280;40488;48.558;18.150;2023-05-07T14:26:25;99760.69;;;19.69;48.66
54592;BME280;40488;48.558;18.150;2023-05-07T14:28:55;99775.78;;;19.81;49.13
54592;BME280;40488;48.558;18.150;2023-05-07T14:31:26;99770.78;;;19.76;48.96
54592;BME280;40488;48.558;18.150;2023-05-07T14:33:55;99778.75;;;19.70;48.99
54592;BME280;40488;48.558;18.150;2023-05-07T14:36:25;99768.97;;;19.55;48.71
54592;BME280;40488;48.558;18.150;2023-05-07T14:38:54;99774.19;;;19.29;49.00
54592;BME280;40488;48.558;18.150;2023-05-07T14:41:26;99779.47;;;19.26;49.09
54592;BME280;40488;48.558;18.150;2023-05-07T14:43:54;99786.84;;;19.38;49.44
54592;BME280;40488;48.558;18.150;2023-05-07T14:46:23;99785.19;;;19.34;49.30
54592;BME280;40488;48.558;18.150;2023-05-07T14:48:52;99785.50;;;19.51;49.51
54592;BME280;40488;48.558;18.150;2023-05-07T14:51:21;99780.81;;;19.37;48.65
54592;BME280;40488;48.558;18.150;2023-05-07T14:53:51;99775.69;;;19.34;48.57
54592;BME280;40488;48.558;18.150;2023-05-07T14:56:19;99769.97;;;19.26;48.38
54592;BME280;40488;48.558;18.150;2023-05-07T14:58:50;99774.19;;;19.03;48.58
54592;BME280;40488;48.558;18.150;2023-05-07T15:01:20;99770.94;;;18.98;48.64
54592;BME280;40488;48.558;18.150;2023-05-07T15:03:49;99771.94;;;19.18;48.88
54592;BME280;40488;48.558;18.150;2023-05-07T15:06:18;99773.59;;;19.21;48.74
54592;BME280;40488;48.558;18.150;2023-05-07T15:08:47;99772.22;;;19.11;48.67
54592;BME280;40488;48.558;18.150;2023-05-07T15:11:16;99767.97;;;19.08;48.56
54592;BME280;40488;48.558;18.150;2023-05-07T15:13:46;99773.16;;;19.08;48.81
54592;BME280;40488;48.558;18.150;2023-05-07T15:16:17;99750.63;;;19.12;48.57
54592;BME280;40488;48.558;18.150;2023-05-07T15:18:46;99761.25;;;19.03;48.21
54592;BME280;40488;48.558;18.150;2023-05-07T15:21:16;99769.25;;;18.97;47.92
54592;BME280;40488;48.558;18.150;2023-05-07T15:23:46;99757.41;;;18.90;47.87
54592;BME280;40488;48.558;18.150;2023-05-07T15:26:15;99772.25;;;18.85;48.03
54592;BME280;40488;48.558;18.150;2023-05-07T15:28:44;99760.72;;;18.68;48.05
54592;BME280;40488;48.558;18.150;2023-05-07T15:31:13;99767.06;;;18.58;48.23
54592;BME280;40488;48.558;18.150;2023-05-07T15:33:43;99765.91;;;18.39;48.54
54592;BME280;40488;48.558;18.150;2023-05-07T15:36:12;99768.09;;;18.25;48.94
54592;BME280;40488;48.558;18.150;2023-05-07T15:38:41;99762.72;;;18.02;49.18
54592;BME280;40488;48.558;18.150;2023-05-07T15:41:09;99774.56;;;18.11;49.72
54592;BME280;40488;48.558;18.150;2023-05-07T15:43:43;99772.69;;;18.16;49.62
54592;BME280;40488;48.558;18.150;2023-05-07T15:46:17;99780.44;;;18.16;49.74
54592;BME280;40488;48.558;18.150;2023-05-07T15:48:48;99778.06;;;18.08;49.11
54592;BME280;40488;48.558;18.150;2023-05-07T15:51:17;99779.66;;;17.83;49.09
54592;BME280;40488;48.558;18.150;2023-05-07T15:53:46;99786.94;;;17.69;49.09
54592;BME280;40488;48.558;18.150;2023-05-07T15:56:15;99783.91;;;17.55;49.18
54592;BME280;40488;48.558;18.150;2023-05-07T15:58:43;99791.00;;;17.47;49.37
54592;BME280;40488;48.558;18.150;2023-05-07T16:01:12;99794.63;;;17.39;49.57
54592;BME280;40488;48.558;18.150;2023-05-07T16:03:41;99794.09;;;17.27;49.66
54592;BME280;40488;48.558;18.150;2023-05-07T16:06:12;99788.22;;;17.20;49.68
54592;BME280;40488;48.558;18.150;2023-05-07T16:11:33;99787.13;;;16.97;50.49
54592;BME280;40488;48.558;18.150;2023-05-07T16:14:02;99785.63;;;16.88;50.50
54592;BME280;40488;48.558;18.150;2023-05-07T16:16:32;99785.13;;;16.74;50.56
54592;BME280;40488;48.558;18.150;2023-05-07T16:19:01;99787.69;;;16.74;50.95
54592;BME280;40488;48.558;18.150;2023-05-07T16:21:30;99781.81;;;16.69;51.55
54592;BME280;40488;48.558;18.150;2023-05-07T16:23:59;99767.38;;;16.62;51.54
54592;BME280;40488;48.558;18.150;2023-05-07T16:26:27;99777.69;;;16.62;51.84
54592;BME280;40488;48.558;18.150;2023-05-07T16:28:59;99769.19;;;16.57;51.51
54592;BME280;40488;48.558;18.150;2023-05-07T16:31:28;99780.72;;;16.41;52.00
54592;BME280;40488;48.558;18.150;2023-05-07T16:33:58;99775.09;;;16.24;52.77
54592;BME280;40488;48.558;18.150;2023-05-07T16:36:27;99780.38;;;16.18;53.49
54592;BME280;40488;48.558;18.150;2023-05-07T16:38:56;99787.22;;;16.19;53.78
54592;BME280;40488;48.558;18.150;2023-05-07T16:41:25;99781.22;;;16.18;53.65
54592;BME280;40488;48.558;18.150;2023-05-07T16:43:53;99784.81;;;16.11;54.42
54592;BME280;40488;48.558;18.150;2023-05-07T16:46:25;99796.28;;;15.96;54.93
54592;BME280;40488;48.558;18.150;2023-05-07T16:48:54;99779.50;;;15.77;54.73
54592;BME280;40488;48.558;18.150;2023-05-07T16:51:23;99783.94;;;15.71;54.67
54592;BME280;40488;48.558;18.150;2023-05-07T16:53:52;99783.22;;;15.64;54.84
54592;BME280;40488;48.558;18.150;2023-05-07T16:56:21;99784.28;;;15.53;55.35
54592;BME280;40488;48.558;18.150;2023-05-07T16:58:50;99788.84;;;15.37;55.28
54592;BME280;40488;48.558;18.150;2023-05-07T17:01:18;99788.84;;;15.37;55.74
54592;BME280;40488;48.558;18.150;2023-05-07T17:03:49;99788.13;;;15.29;55.50
54592;BME280;40488;48.558;18.150;2023-05-07T17:06:18;99789.13;;;15.22;56.26
54592;BME280;40488;48.558;18.150;2023-05-07T17:08:47;99783.19;;;15.17;56.42
54592;BME280;40488;48.558;18.150;2023-05-07T17:11:17;99787.72;;;15.04;56.33
54592;BME280;40488;48.558;18.150;2023-05-07T17:13:47;99796.44;;;14.96;56.60
54592;BME280;40488;48.558;18.150;2023-05-07T17:16:16;99806.66;;;14.99;57.07
54592;BME280;40488;48.558;18.150;2023-05-07T17:18:46;99808.47;;;14.94;56.74
54592;BME280;40488;48.558;18.150;2023-05-07T17:21:16;99804.44;;;14.76;56.90
54592;BME280;40488;48.558;18.150;2023-05-07T17:23:45;99816.56;;;14.69;57.42
54592;BME280;40488;48.558;18.150;2023-05-07T17:26:14;99816.59;;;14.68;57.14
54592;BME280;40488;48.558;18.150;2023-05-07T17:28:43;99814.88;;;14.67;57.26
54592;BME280;40488;48.558;18.150;2023-05-07T17:31:12;99812.50;;;14.56;57.73
54592;BME280;40488;48.558;18.150;2023-05-07T17:33:41;99815.19;;;14.46;57.46
54592;BME280;40488;48.558;18.150;2023-05-07T17:36:09;99822.09;;;14.42;57.63
54592;BME280;40488;48.558;18.150;2023-05-07T17:38:40;99801.00;;;14.19;57.90
54592;BME280;40488;48.558;18.150;2023-05-07T17:41:09;99822.34;;;14.23;58.59
54592;BME280;40488;48.558;18.150;2023-05-07T17:43:38;99823.31;;;14.14;58.55
54592;BME280;40488;48.558;18.150;2023-05-07T17:46:07;99823.47;;;13.99;58.73
54592;BME280;40488;48.558;18.150;2023-05-07T17:48:36;99832.09;;;13.95;58.70
54592;BME280;40488;48.558;18.150;2023-05-07T17:51:05;99827.88;;;13.91;58.74
54592;BME280;40488;48.558;18.150;2023-05-07T17:53:34;99827.94;;;13.85;59.14
54592;BME280;40488;48.558;18.150;2023-05-07T17:56:04;99828.06;;;13.74;58.85
54592;BME280;40488;48.558;18.150;2023-05-07T17:58:33;99833.31;;;13.64;59.36
54592;BME280;40488;48.558;18.150;2023-05-07T18:01:22;99841.03;;;13.62;59.55
54592;BME280;40488;48.558;18.150;2023-05-07T18:03:51;99847.00;;;13.61;59.30
54592;BME280;40488;48.558;18.150;2023-05-07T18:06:21;99851.34;;;13.58;59.35
54592;BME280;40488;48.558;18.150;2023-05-07T18:08:50;99847.91;;;13.56;59.56
54592;BME280;40488;48.558;18.150;2023-05-07T18:11:22;99859.97;;;13.48;59.53
54592;BME280;40488;48.558;18.150;2023-05-07T18:13:51;99858.34;;;13.39;60.02
54592;BME280;40488;48.558;18.150;2023-05-07T18:16:20;99875.50;;;13.29;60.21
54592;BME280;40488;48.558;18.150;2023-05-07T18:18:49;99866.13;;;13.28;60.00
54592;BME280;40488;48.558;18.150;2023-05-07T18:21:18;99869.59;;;13.23;60.25
54592;BME280;40488;48.558;18.150;2023-05-07T18:23:47;99872.19;;;13.18;59.92
54592;BME280;40488;48.558;18.150;2023-05-07T18:26:17;99873.91;;;13.19;60.40
54592;BME280;40488;48.558;18.150;2023-05-07T18:28:48;99878.25;;;13.11;60.49
54592;BME280;40488;48.558;18.150;2023-05-07T18:31:16;99878.28;;;13.07;60.46
54592;BME280;40488;48.558;18.150;2023-05-07T18:33:46;99882.53;;;13.03;60.68
54592;BME280;40488;48.558;18.150;2023-05-07T18:36:18;99891.94;;;13.01;60.76
54592;BME280;40488;48.558;18.150;2023-05-07T18:38:47;99897.13;;;12.95;60.74
54592;BME280;40488;48.558;18.150;2023-05-07T18:41:16;99904.84;;;12.86;61.17
54592;BME280;40488;48.558;18.150;2023-05-07T18:43:44;99897.19;;;12.82;61.39
54592;BME280;40488;48.558;18.150;2023-05-07T18:46:16;99911.69;;;12.84;61.24
54592;BME280;40488;48.558;18.150;2023-05-07T18:48:44;99920.31;;;12.69;61.41
54592;BME280;40488;48.558;18.150;2023-05-07T18:51:13;99918.66;;;12.64;61.53
54592;BME280;40488;48.558;18.150;2023-05-07T18:53:42;99928.03;;;12.65;61.75
54592;BME280;40488;48.558;18.150;2023-05-07T18:56:11;99928.91;;;12.64;61.60
54592;BME280;40488;48.558;18.150;2023-05-07T18:58:40;99932.38;;;12.54;61.92
54592;BME280;40488;48.558;18.150;2023-05-07T19:01:09;99929.84;;;12.45;62.12
54592;BME280;40488;48.558;18.150;2023-05-07T19:03:39;99939.25;;;12.40;62.24
54592;BME280;40488;48.558;18.150;2023-05-07T19:06:08;99948.66;;;12.38;62.32
54592;BME280;40488;48.558;18.150;2023-05-07T19:08:36;99953.75;;;12.36;62.51
54592;BME280;40488;48.558;18.150;2023-05-07T19:11:06;99958.06;;;12.33;62.51
54592;BME280;40488;48.558;18.150;2023-05-07T19:13:34;99955.53;;;12.24;62.65
54592;BME280;40488;48.558;18.150;2023-05-07T19:16:04;99956.41;;;12.10;62.89
54592;BME280;40488;48.558;18.150;2023-05-07T19:18:37;99950.44;;;12.12;62.79
54592;BME280;40488;48.558;18.150;2023-05-07T19:21:07;99958.97;;;12.10;63.01
54592;BME280;40488;48.558;18.150;2023-05-07T19:23:37;99964.06;;;12.04;63.03
54592;BME280;40488;48.558;18.150;2023-05-07T19:26:08;99964.13;;;11.94;63.24
54592;BME280;40488;48.558;18.150;2023-05-07T19:28:37;99974.34;;;11.94;63.14
54592;BME280;40488;48.558;18.150;2023-05-07T19:31:18;99966.69;;;11.92;63.09
54592;BME280;40488;48.558;18.150;2023-05-07T19:33:49;99965.84;;;11.83;63.04
54592;BME280;40488;48.558;18.150;2023-05-07T19:36:19;99967.56;;;11.75;63.31
54592;BME280;40488;48.558;18.150;2023-05-07T19:38:48;99973.50;;;11.69;63.10
54592;BME280;40488;48.558;18.150;2023-05-07T19:41:19;99968.38;;;11.60;63.58
54592;BME280;40488;48.558;18.150;2023-05-07T19:43:49;99975.19;;;11.52;63.36
54592;BME280;40488;48.558;18.150;2023-05-07T19:46:17;99975.22;;;11.49;63.63
54592;BME280;40488;48.558;18.150;2023-05-07T19:48:46;99976.88;;;11.42;64.00
54592;BME280;40488;48.558;18.150;2023-05-07T19:51:15;99980.31;;;11.43;63.90
54592;BME280;40488;48.558;18.150;2023-05-07T19:53:45;99987.13;;;11.41;63.86
54592;BME280;40488;48.558;18.150;2023-05-07T19:56:14;99995.63;;;11.34;63.81
54592;BME280;40488;48.558;18.150;2023-05-07T19:58:43;99997.34;;;11.32;64.00
54592;BME280;40488;48.558;18.150;2023-05-07T20:01:12;99993.91;;;11.24;64.33
54592;BME280;40488;48.558;18.150;2023-05-07T20:03:41;100004.13;;;11.18;64.19
54592;BME280;40488;48.558;18.150;2023-05-07T20:06:10;99996.47;;;11.18;64.10
54592;BME280;40488;48.558;18.150;2023-05-07T20:08:38;100011.75;;;11.07;64.49
54592;BME280;40488;48.558;18.150;2023-05-07T20:11:11;100000.66;;;11.04;64.63
54592;BME280;40488;48.558;18.150;2023-05-07T20:13:40;100009.22;;;11.06;64.71
54592;BME280;40488;48.558;18.150;2023-05-07T20:16:09;100012.59;;;10.99;64.49
54592;BME280;40488;48.558;18.150;2023-05-07T20:18:38;100010.00;;;10.93;64.71
54592;BME280;40488;48.558;18.150;2023-05-07T20:21:07;99996.34;;;10.80;64.54
54592;BME280;40488;48.558;18.150;2023-05-07T20:23:36;100017.59;;;10.77;64.88
54592;BME280;40488;48.558;18.150;2023-05-07T20:26:05;100021.03;;;10.76;65.20
54592;BME280;40488;48.558;18.150;2023-05-07T20:28:35;100022.69;;;10.68;65.57
54592;BME280;40488;48.558;18.150;2023-05-07T20:31:04;100029.50;;;10.71;65.07
54592;BME280;40488;48.558;18.150;2023-05-07T20:33:33;100046.53;;;10.67;64.89
54592;BME280;40488;48.558;18.150;2023-05-07T20:36:02;100043.09;;;10.68;65.55
54592;BME280;40488;48.558;18.150;2023-05-07T20:38:31;100049.06;;;10.69;65.56
54592;BME280;40488;48.558;18.150;2023-05-07T20:41:05;100051.59;;;10.60;65.96
54592;BME280;40488;48.558;18.150;2023-05-07T20:43:36;100059.19;;;10.54;65.65
54592;BME280;40488;48.558;18.150;2023-05-07T20:46:05;100062.56;;;10.47;65.98
54592;BME280;40488;48.558;18.150;2023-05-07T20:48:34;100062.53;;;10.42;66.03
54592;BME280;40488;48.558;18.150;2023-05-07T20:51:03;100069.31;;;10.37;66.43
54592;BME280;40488;48.558;18.150;2023-05-07T20:53:32;100065.88;;;10.29;66.68
54592;BME280;40488;48.558;18.150;2023-05-07T20:56:04;100075.19;;;10.24;66.55
54592;BME280;40488;48.558;18.150;2023-05-07T20:58:32;100072.63;;;10.26;66.49
54592;BME280;40488;48.558;18.150;2023-05-07T21:01:03;100078.63;;;10.32;66.34
54592;BME280;40488;48.558;18.150;2023-05-07T21:03:33;100087.13;;;10.28;66.66
54592;BME280;40488;48.558;18.150;2023-05-07T21:06:02;100090.50;;;10.24;66.66
54592;BME280;40488;48.558;18.150;2023-05-07T21:08:31;100087.09;;;10.25;66.42
54592;BME280;40488;48.558;18.150;2023-05-07T21:11:00;100090.47;;;10.21;66.29
54592;BME280;40488;48.558;18.150;2023-05-07T21:13:29;100094.69;;;10.18;66.45
54592;BME280;40488;48.558;18.150;2023-05-07T21:15:58;100104.00;;;10.14;66.66
54592;BME280;40488;48.558;18.150;2023-05-07T21:18:29;100109.84;;;10.02;66.42
54592;BME280;40488;48.558;18.150;2023-05-07T21:20:58;100096.25;;;10.00;66.76
54592;BME280;40488;48.558;18.150;2023-05-07T21:23:27;100100.50;;;10.06;67.28